sensor_id;sensor_type;location;lat;lon;timestamp;P1;durP1;ratioP1;P2;durP2;ratioP2
73550;SDS011;61816;53.582;10.096;2022-08-02T00:01:34;32.90;;;7.95;;
73550;SDS011;61816;53.582;10.096;2022-08-02T00:03:59;43.15;;;9.98;;
73550;SDS011;61816;53.582;10.096;2022-08-02T00:06:25;30.35;;;9.40;;
73550;SDS011;61816;53.582;10.096;2022-08-02T00:08:50;28.10;;;7.50;;
73550;SDS011;61816;53.582;10.096;2022-08-02T00:11:18;26.15;;;8.52;;
73550;SDS011;61816;53.582;10.096;2022-08-02T00:13:44;30.85;;;9.00;;
73550;SDS011;61816;53.582;10.096;2022-08-02T00:16:09;24.48;;;9.27;;
73550;SDS011;61816;53.582;10.096;2022-08-02T00:18:34;26.50;;;9.13;;
73550;SDS011;61816;53.582;10.096;2022-08-02T00:21:00;33.03;;;9.70;;
73550;SDS011;61816;53.582;10.096;2022-08-02T00:23:25;30.88;;;8.73;;
73550;SDS011;61816;53.582;10.096;2022-08-02T00:25:51;30.50;;;9.43;;
73550;SDS011;61816;53.582;10.096;2022-08-02T00:28:16;30.92;;;8.40;;
73550;SDS011;61816;53.582;10.096;2022-08-02T00:30:41;26.63;;;8.95;;
73550;SDS011;61816;53.582;10.096;2022-08-02T00:33:07;25.83;;;8.13;;
73550;SDS011;61816;53.582;10.096;2022-08-02T00:35:33;30.50;;;8.18;;
73550;SDS011;61816;53.582;10.096;2022-08-02T00:37:59;32.88;;;9.38;;
73550;SDS011;61816;53.582;10.096;2022-08-02T00:40:24;24.30;;;7.88;;
73550;SDS011;61816;53.582;10.096;2022-08-02T00:43:06;17.38;;;6.95;;
73550;SDS011;61816;53.582;10.096;2022-08-02T00:45:35;21.48;;;6.97;;
73550;SDS011;61816;53.582;10.096;2022-08-02T00:48:03;23.85;;;7.30;;
73550;SDS011;61816;53.582;10.096;2022-08-02T00:50:30;27.08;;;7.97;;
73550;SDS011;61816;53.582;10.096;2022-08-02T00:52:56;17.17;;;7.22;;
73550;SDS011;61816;53.582;10.096;2022-08-02T00:55:22;28.95;;;8.23;;
73550;SDS011;61816;53.582;10.096;2022-08-02T00:57:48;18.10;;;6.47;;
73550;SDS011;61816;53.582;10.096;2022-08-02T01:00:14;19.67;;;6.45;;
73550;SDS011;61816;53.582;10.096;2022-08-02T01:02:40;19.17;;;5.72;;
73550;SDS011;61816;53.582;10.096;2022-08-02T01:05:05;17.80;;;5.38;;
73550;SDS011;61816;53.582;10.096;2022-08-02T01:07:31;25.05;;;5.80;;
73550;SDS011;61816;53.582;10.096;2022-08-02T01:09:56;16.50;;;5.25;;
73550;SDS011;61816;53.582;10.096;2022-08-02T01:12:23;22.77;;;5.40;;
73550;SDS011;61816;53.582;10.096;2022-08-02T01:14:49;10.52;;;4.22;;
73550;SDS011;61816;53.582;10.096;2022-08-02T01:17:20;17.77;;;3.97;;
73550;SDS011;61816;53.582;10.096;2022-08-02T01:19:56;22.25;;;5.13;;
73550;SDS011;61816;53.582;10.096;2022-08-02T01:31:00;16.67;;;4.57;;
73550;SDS011;61816;53.582;10.096;2022-08-02T01:33:34;16.23;;;3.90;;
73550;SDS011;61816;53.582;10.096;2022-08-02T01:36:04;12.75;;;3.97;;
73550;SDS011;61816;53.582;10.096;2022-08-02T01:38:38;18.25;;;4.43;;
73550;SDS011;61816;53.582;10.096;2022-08-02T01:41:07;21.23;;;4.55;;
73550;SDS011;61816;53.582;10.096;2022-08-02T01:43:37;23.00;;;4.88;;
73550;SDS011;61816;53.582;10.096;2022-08-02T01:46:06;12.63;;;4.05;;
73550;SDS011;61816;53.582;10.096;2022-08-02T01:48:34;7.70;;;3.85;;
73550;SDS011;61816;53.582;10.096;2022-08-02T01:51:01;14.98;;;4.05;;
73550;SDS011;61816;53.582;10.096;2022-08-02T01:53:28;15.15;;;3.65;;
73550;SDS011;61816;53.582;10.096;2022-08-02T01:55:54;19.70;;;5.22;;
73550;SDS011;61816;53.582;10.096;2022-08-02T01:58:23;18.15;;;4.68;;
73550;SDS011;61816;53.582;10.096;2022-08-02T02:00:51;19.85;;;5.07;;
73550;SDS011;61816;53.582;10.096;2022-08-02T02:03:22;20.95;;;4.57;;
73550;SDS011;61816;53.582;10.096;2022-08-02T02:05:49;15.57;;;4.20;;
73550;SDS011;61816;53.582;10.096;2022-08-02T02:08:28;20.02;;;4.13;;
73550;SDS011;61816;53.582;10.096;2022-08-02T02:11:04;18.08;;;4.30;;
73550;SDS011;61816;53.582;10.096;2022-08-02T02:13:30;13.88;;;3.92;;
73550;SDS011;61816;53.582;10.096;2022-08-02T02:15:57;16.25;;;3.80;;
73550;SDS011;61816;53.582;10.096;2022-08-02T02:18:28;9.85;;;3.95;;
73550;SDS011;61816;53.582;10.096;2022-08-02T02:20:54;17.55;;;4.15;;
73550;SDS011;61816;53.582;10.096;2022-08-02T02:23:21;14.60;;;3.72;;
73550;SDS011;61816;53.582;10.096;2022-08-02T02:25:47;15.18;;;5.00;;
73550;SDS011;61816;53.582;10.096;2022-08-02T02:28:20;17.52;;;5.05;;
73550;SDS011;61816;53.582;10.096;2022-08-02T02:30:49;11.40;;;4.13;;
73550;SDS011;61816;53.582;10.096;2022-08-02T02:33:17;16.02;;;5.32;;
73550;SDS011;61816;53.582;10.096;2022-08-02T02:35:44;22.67;;;4.60;;
73550;SDS011;61816;53.582;10.096;2022-08-02T02:38:12;15.48;;;4.10;;
73550;SDS011;61816;53.582;10.096;2022-08-02T02:40:39;18.17;;;5.30;;
73550;SDS011;61816;53.582;10.096;2022-08-02T02:43:05;22.17;;;4.93;;
73550;SDS011;61816;53.582;10.096;2022-08-02T02:45:34;24.58;;;5.80;;
73550;SDS011;61816;53.582;10.096;2022-08-02T02:48:02;17.25;;;5.35;;
73550;SDS011;61816;53.582;10.096;2022-08-02T02:50:29;14.45;;;4.65;;
73550;SDS011;61816;53.582;10.096;2022-08-02T02:52:55;26.15;;;6.65;;
73550;SDS011;61816;53.582;10.096;2022-08-02T02:55:21;25.42;;;4.90;;
73550;SDS011;61816;53.582;10.096;2022-08-02T02:57:48;18.98;;;6.10;;
73550;SDS011;61816;53.582;10.096;2022-08-02T03:00:14;16.45;;;4.80;;
73550;SDS011;61816;53.582;10.096;2022-08-02T03:02:43;16.35;;;5.07;;
73550;SDS011;61816;53.582;10.096;2022-08-02T03:05:10;11.60;;;5.03;;
73550;SDS011;61816;53.582;10.096;2022-08-02T03:07:36;10.48;;;4.97;;
73550;SDS011;61816;53.582;10.096;2022-08-02T03:10:03;16.77;;;5.38;;
73550;SDS011;61816;53.582;10.096;2022-08-02T03:12:29;11.27;;;4.28;;
73550;SDS011;61816;53.582;10.096;2022-08-02T03:14:59;16.45;;;4.57;;
73550;SDS011;61816;53.582;10.096;2022-08-02T03:17:35;15.93;;;4.90;;
73550;SDS011;61816;53.582;10.096;2022-08-02T03:22:35;21.65;;;5.25;;
73550;SDS011;61816;53.582;10.096;2022-08-02T03:25:00;22.20;;;5.50;;
73550;SDS011;61816;53.582;10.096;2022-08-02T03:27:26;17.92;;;4.65;;
73550;SDS011;61816;53.582;10.096;2022-08-02T03:29:51;17.10;;;4.72;;
73550;SDS011;61816;53.582;10.096;2022-08-02T03:32:16;21.63;;;5.32;;
73550;SDS011;61816;53.582;10.096;2022-08-02T03:34:42;15.32;;;4.60;;
73550;SDS011;61816;53.582;10.096;2022-08-02T03:37:07;14.80;;;3.83;;
73550;SDS011;61816;53.582;10.096;2022-08-02T03:39:33;10.73;;;4.15;;
73550;SDS011;61816;53.582;10.096;2022-08-02T03:41:59;12.52;;;3.85;;
73550;SDS011;61816;53.582;10.096;2022-08-02T03:44:25;18.70;;;4.53;;
73550;SDS011;61816;53.582;10.096;2022-08-02T03:46:51;28.80;;;5.32;;
73550;SDS011;61816;53.582;10.096;2022-08-02T03:49:17;18.10;;;5.05;;
73550;SDS011;61816;53.582;10.096;2022-08-02T03:51:44;16.23;;;4.72;;
73550;SDS011;61816;53.582;10.096;2022-08-02T03:54:10;14.80;;;4.20;;
73550;SDS011;61816;53.582;10.096;2022-08-02T03:56:36;12.27;;;4.65;;
73550;SDS011;61816;53.582;10.096;2022-08-02T03:59:20;20.23;;;4.57;;
73550;SDS011;61816;53.582;10.096;2022-08-02T04:01:45;15.40;;;4.20;;
73550;SDS011;61816;53.582;10.096;2022-08-02T04:04:10;12.98;;;4.15;;
73550;SDS011;61816;53.582;10.096;2022-08-02T04:06:36;18.23;;;4.65;;
73550;SDS011;61816;53.582;10.096;2022-08-02T04:09:02;15.68;;;5.75;;
73550;SDS011;61816;53.582;10.096;2022-08-02T04:11:28;19.85;;;4.72;;
73550;SDS011;61816;53.582;10.096;2022-08-02T04:13:57;12.68;;;4.75;;
73550;SDS011;61816;53.582;10.096;2022-08-02T04:16:28;16.65;;;5.72;;
73550;SDS011;61816;53.582;10.096;2022-08-02T04:19:01;15.60;;;4.90;;
73550;SDS011;61816;53.582;10.096;2022-08-02T04:21:30;15.85;;;4.32;;
73550;SDS011;61816;53.582;10.096;2022-08-02T04:23:58;17.08;;;4.38;;
73550;SDS011;61816;53.582;10.096;2022-08-02T04:26:26;21.45;;;5.35;;
73550;SDS011;61816;53.582;10.096;2022-08-02T04:28:52;18.42;;;5.60;;
73550;SDS011;61816;53.582;10.096;2022-08-02T04:31:18;19.75;;;5.47;;
73550;SDS011;61816;53.582;10.096;2022-08-02T04:33:45;18.85;;;5.28;;
73550;SDS011;61816;53.582;10.096;2022-08-02T04:36:10;16.95;;;5.57;;
73550;SDS011;61816;53.582;10.096;2022-08-02T04:38:39;17.38;;;4.25;;
73550;SDS011;61816;53.582;10.096;2022-08-02T04:41:05;19.80;;;5.68;;
73550;SDS011;61816;53.582;10.096;2022-08-02T04:43:30;20.58;;;4.70;;
73550;SDS011;61816;53.582;10.096;2022-08-02T04:45:56;20.63;;;5.07;;
73550;SDS011;61816;53.582;10.096;2022-08-02T04:48:21;19.02;;;5.05;;
73550;SDS011;61816;53.582;10.096;2022-08-02T04:50:47;22.83;;;5.60;;
73550;SDS011;61816;53.582;10.096;2022-08-02T04:53:12;24.95;;;5.65;;
73550;SDS011;61816;53.582;10.096;2022-08-02T04:55:38;14.75;;;6.20;;
73550;SDS011;61816;53.582;10.096;2022-08-02T04:58:03;17.70;;;5.70;;
73550;SDS011;61816;53.582;10.096;2022-08-02T05:00:29;24.20;;;5.65;;
73550;SDS011;61816;53.582;10.096;2022-08-02T05:02:55;21.63;;;6.65;;
73550;SDS011;61816;53.582;10.096;2022-08-02T05:05:21;21.13;;;5.95;;
73550;SDS011;61816;53.582;10.096;2022-08-02T05:07:46;17.73;;;5.35;;
73550;SDS011;61816;53.582;10.096;2022-08-02T05:10:12;21.70;;;6.40;;
73550;SDS011;61816;53.582;10.096;2022-08-02T05:12:38;25.67;;;6.88;;
73550;SDS011;61816;53.582;10.096;2022-08-02T05:15:04;16.58;;;6.20;;
73550;SDS011;61816;53.582;10.096;2022-08-02T05:17:30;22.80;;;7.03;;
73550;SDS011;61816;53.582;10.096;2022-08-02T05:19:55;20.02;;;7.10;;
73550;SDS011;61816;53.582;10.096;2022-08-02T05:22:21;32.60;;;7.30;;
73550;SDS011;61816;53.582;10.096;2022-08-02T05:24:47;28.77;;;7.60;;
73550;SDS011;61816;53.582;10.096;2022-08-02T05:27:12;29.52;;;7.30;;
73550;SDS011;61816;53.582;10.096;2022-08-02T05:29:38;19.35;;;6.80;;
73550;SDS011;61816;53.582;10.096;2022-08-02T05:32:03;28.10;;;6.30;;
73550;SDS011;61816;53.582;10.096;2022-08-02T05:34:29;29.63;;;7.65;;
73550;SDS011;61816;53.582;10.096;2022-08-02T05:36:54;23.48;;;6.82;;
73550;SDS011;61816;53.582;10.096;2022-08-02T05:39:19;20.75;;;6.03;;
73550;SDS011;61816;53.582;10.096;2022-08-02T05:41:45;22.05;;;6.65;;
73550;SDS011;61816;53.582;10.096;2022-08-02T05:44:10;23.50;;;6.38;;
73550;SDS011;61816;53.582;10.096;2022-08-02T05:46:35;22.35;;;7.88;;
73550;SDS011;61816;53.582;10.096;2022-08-02T05:49:02;28.63;;;7.18;;
73550;SDS011;61816;53.582;10.096;2022-08-02T05:51:32;24.45;;;6.03;;
73550;SDS011;61816;53.582;10.096;2022-08-02T05:57:00;33.20;;;7.05;;
73550;SDS011;61816;53.582;10.096;2022-08-02T06:01:59;25.40;;;5.60;;
73550;SDS011;61816;53.582;10.096;2022-08-02T06:04:33;27.15;;;5.20;;
73550;SDS011;61816;53.582;10.096;2022-08-02T06:07:12;41.92;;;7.05;;
73550;SDS011;61816;53.582;10.096;2022-08-02T06:09:38;31.80;;;5.25;;
73550;SDS011;61816;53.582;10.096;2022-08-02T06:12:04;24.38;;;5.22;;
73550;SDS011;61816;53.582;10.096;2022-08-02T06:17:04;18.63;;;5.22;;
73550;SDS011;61816;53.582;10.096;2022-08-02T06:19:30;23.73;;;4.63;;
73550;SDS011;61816;53.582;10.096;2022-08-02T06:21:56;26.63;;;4.93;;
73550;SDS011;61816;53.582;10.096;2022-08-02T06:24:39;23.35;;;4.30;;
73550;SDS011;61816;53.582;10.096;2022-08-02T06:27:08;24.65;;;4.80;;
73550;SDS011;61816;53.582;10.096;2022-08-02T06:29:35;25.23;;;4.07;;
73550;SDS011;61816;53.582;10.096;2022-08-02T06:32:02;24.52;;;3.78;;
73550;SDS011;61816;53.582;10.096;2022-08-02T06:34:27;19.83;;;4.15;;
73550;SDS011;61816;53.582;10.096;2022-08-02T06:37:05;14.40;;;3.22;;
73550;SDS011;61816;53.582;10.096;2022-08-02T06:39:43;21.95;;;3.92;;
73550;SDS011;61816;53.582;10.096;2022-08-02T06:42:12;20.67;;;3.38;;
73550;SDS011;61816;53.582;10.096;2022-08-02T06:44:42;20.55;;;3.35;;
73550;SDS011;61816;53.582;10.096;2022-08-02T06:47:07;15.43;;;2.42;;
73550;SDS011;61816;53.582;10.096;2022-08-02T06:49:33;21.65;;;4.85;;
73550;SDS011;61816;53.582;10.096;2022-08-02T06:51:58;18.33;;;3.00;;
73550;SDS011;61816;53.582;10.096;2022-08-02T06:54:24;22.05;;;3.40;;
73550;SDS011;61816;53.582;10.096;2022-08-02T06:56:49;15.77;;;3.47;;
73550;SDS011;61816;53.582;10.096;2022-08-02T06:59:15;19.50;;;5.38;;
73550;SDS011;61816;53.582;10.096;2022-08-02T07:01:40;14.60;;;2.90;;
73550;SDS011;61816;53.582;10.096;2022-08-02T07:04:06;15.63;;;3.05;;
73550;SDS011;61816;53.582;10.096;2022-08-02T07:06:32;19.83;;;2.88;;
73550;SDS011;61816;53.582;10.096;2022-08-02T07:08:58;20.05;;;3.22;;
73550;SDS011;61816;53.582;10.096;2022-08-02T07:11:23;21.98;;;2.85;;
73550;SDS011;61816;53.582;10.096;2022-08-02T07:13:49;23.80;;;3.83;;
73550;SDS011;61816;53.582;10.096;2022-08-02T07:16:14;12.55;;;2.60;;
73550;SDS011;61816;53.582;10.096;2022-08-02T07:18:39;22.33;;;5.63;;
73550;SDS011;61816;53.582;10.096;2022-08-02T07:21:05;22.25;;;4.07;;
73550;SDS011;61816;53.582;10.096;2022-08-02T07:23:31;21.10;;;3.70;;
73550;SDS011;61816;53.582;10.096;2022-08-02T07:25:57;20.15;;;3.70;;
73550;SDS011;61816;53.582;10.096;2022-08-02T07:28:22;23.35;;;3.38;;
73550;SDS011;61816;53.582;10.096;2022-08-02T07:30:48;16.33;;;3.83;;
73550;SDS011;61816;53.582;10.096;2022-08-02T07:33:13;14.05;;;3.17;;
73550;SDS011;61816;53.582;10.096;2022-08-02T07:35:39;19.85;;;2.97;;
73550;SDS011;61816;53.582;10.096;2022-08-02T07:38:05;21.27;;;4.45;;
73550;SDS011;61816;53.582;10.096;2022-08-02T07:40:31;23.17;;;3.95;;
73550;SDS011;61816;53.582;10.096;2022-08-02T07:42:56;22.38;;;3.13;;
73550;SDS011;61816;53.582;10.096;2022-08-02T07:45:22;15.65;;;3.90;;
73550;SDS011;61816;53.582;10.096;2022-08-02T07:47:48;20.58;;;3.90;;
73550;SDS011;61816;53.582;10.096;2022-08-02T07:50:16;14.90;;;3.30;;
73550;SDS011;61816;53.582;10.096;2022-08-02T07:52:43;8.65;;;2.75;;
73550;SDS011;61816;53.582;10.096;2022-08-02T07:55:09;18.25;;;2.95;;
73550;SDS011;61816;53.582;10.096;2022-08-02T07:57:37;15.75;;;2.80;;
73550;SDS011;61816;53.582;10.096;2022-08-02T08:00:04;21.20;;;3.00;;
73550;SDS011;61816;53.582;10.096;2022-08-02T08:02:30;15.18;;;2.70;;
73550;SDS011;61816;53.582;10.096;2022-08-02T08:04:56;7.72;;;2.55;;
73550;SDS011;61816;53.582;10.096;2022-08-02T08:07:22;15.93;;;3.45;;
73550;SDS011;61816;53.582;10.096;2022-08-02T08:09:48;18.02;;;3.22;;
73550;SDS011;61816;53.582;10.096;2022-08-02T08:12:16;14.25;;;3.47;;
73550;SDS011;61816;53.582;10.096;2022-08-02T08:14:41;23.10;;;3.85;;
73550;SDS011;61816;53.582;10.096;2022-08-02T08:17:07;15.77;;;3.42;;
73550;SDS011;61816;53.582;10.096;2022-08-02T08:19:32;12.05;;;3.63;;
73550;SDS011;61816;53.582;10.096;2022-08-02T08:21:58;30.98;;;3.88;;
73550;SDS011;61816;53.582;10.096;2022-08-02T08:24:27;16.88;;;3.65;;
73550;SDS011;61816;53.582;10.096;2022-08-02T08:26:53;20.88;;;3.85;;
73550;SDS011;61816;53.582;10.096;2022-08-02T08:29:19;16.35;;;3.40;;
73550;SDS011;61816;53.582;10.096;2022-08-02T08:31:45;18.45;;;3.50;;
73550;SDS011;61816;53.582;10.096;2022-08-02T08:34:11;17.95;;;3.35;;
73550;SDS011;61816;53.582;10.096;2022-08-02T08:36:37;21.50;;;3.42;;
73550;SDS011;61816;53.582;10.096;2022-08-02T08:39:02;17.95;;;3.30;;
73550;SDS011;61816;53.582;10.096;2022-08-02T08:41:28;19.40;;;3.65;;
73550;SDS011;61816;53.582;10.096;2022-08-02T08:43:53;16.80;;;3.15;;
73550;SDS011;61816;53.582;10.096;2022-08-02T08:46:26;17.38;;;3.22;;
73550;SDS011;61816;53.582;10.096;2022-08-02T08:49:00;22.40;;;3.85;;
73550;SDS011;61816;53.582;10.096;2022-08-02T08:51:30;18.13;;;2.95;;
73550;SDS011;61816;53.582;10.096;2022-08-02T08:54:01;22.38;;;3.17;;
73550;SDS011;61816;53.582;10.096;2022-08-02T08:56:31;16.67;;;3.95;;
73550;SDS011;61816;53.582;10.096;2022-08-02T08:58:59;14.95;;;3.33;;
73550;SDS011;61816;53.582;10.096;2022-08-02T09:01:25;12.55;;;2.70;;
73550;SDS011;61816;53.582;10.096;2022-08-02T09:03:51;17.80;;;3.05;;
73550;SDS011;61816;53.582;10.096;2022-08-02T09:06:16;20.23;;;3.20;;
73550;SDS011;61816;53.582;10.096;2022-08-02T09:08:42;18.65;;;2.92;;
73550;SDS011;61816;53.582;10.096;2022-08-02T09:11:11;14.75;;;2.63;;
73550;SDS011;61816;53.582;10.096;2022-08-02T09:13:39;14.68;;;3.10;;
73550;SDS011;61816;53.582;10.096;2022-08-02T09:16:13;12.07;;;2.90;;
73550;SDS011;61816;53.582;10.096;2022-08-02T09:18:42;15.13;;;2.50;;
73550;SDS011;61816;53.582;10.096;2022-08-02T09:21:09;12.20;;;2.90;;
73550;SDS011;61816;53.582;10.096;2022-08-02T09:23:39;18.85;;;2.80;;
73550;SDS011;61816;53.582;10.096;2022-08-02T09:26:07;13.27;;;2.85;;
73550;SDS011;61816;53.582;10.096;2022-08-02T09:28:35;16.17;;;2.67;;
73550;SDS011;61816;53.582;10.096;2022-08-02T09:31:07;15.45;;;2.90;;
73550;SDS011;61816;53.582;10.096;2022-08-02T09:33:35;10.63;;;2.28;;
73550;SDS011;61816;53.582;10.096;2022-08-02T09:36:03;15.93;;;2.70;;
73550;SDS011;61816;53.582;10.096;2022-08-02T09:38:33;11.88;;;3.05;;
73550;SDS011;61816;53.582;10.096;2022-08-02T09:40:59;16.08;;;2.70;;
73550;SDS011;61816;53.582;10.096;2022-08-02T09:43:39;15.32;;;2.30;;
73550;SDS011;61816;53.582;10.096;2022-08-02T09:46:16;11.05;;;2.55;;
73550;SDS011;61816;53.582;10.096;2022-08-02T09:53:48;7.53;;;2.15;;
73550;SDS011;61816;53.582;10.096;2022-08-02T09:56:16;11.57;;;2.83;;
73550;SDS011;61816;53.582;10.096;2022-08-02T09:58:42;14.93;;;2.90;;
73550;SDS011;61816;53.582;10.096;2022-08-02T10:01:07;12.35;;;2.70;;
73550;SDS011;61816;53.582;10.096;2022-08-02T10:03:33;16.45;;;3.35;;
73550;SDS011;61816;53.582;10.096;2022-08-02T10:05:59;15.70;;;3.08;;
73550;SDS011;61816;53.582;10.096;2022-08-02T10:08:26;17.80;;;3.47;;
73550;SDS011;61816;53.582;10.096;2022-08-02T10:10:53;14.98;;;3.65;;
73550;SDS011;61816;53.582;10.096;2022-08-02T10:15:58;15.90;;;3.15;;
73550;SDS011;61816;53.582;10.096;2022-08-02T10:18:24;14.93;;;2.83;;
73550;SDS011;61816;53.582;10.096;2022-08-02T10:20:50;11.52;;;2.65;;
73550;SDS011;61816;53.582;10.096;2022-08-02T10:23:19;8.27;;;1.90;;
73550;SDS011;61816;53.582;10.096;2022-08-02T10:25:46;8.82;;;2.92;;
73550;SDS011;61816;53.582;10.096;2022-08-02T10:28:15;10.07;;;2.75;;
73550;SDS011;61816;53.582;10.096;2022-08-02T10:30:41;9.18;;;2.10;;
73550;SDS011;61816;53.582;10.096;2022-08-02T10:33:09;14.35;;;2.90;;
73550;SDS011;61816;53.582;10.096;2022-08-02T10:35:37;18.23;;;2.85;;
73550;SDS011;61816;53.582;10.096;2022-08-02T10:38:06;11.52;;;2.83;;
73550;SDS011;61816;53.582;10.096;2022-08-02T10:40:48;14.68;;;2.33;;
73550;SDS011;61816;53.582;10.096;2022-08-02T10:54:20;20.65;;;2.97;;
73550;SDS011;61816;53.582;10.096;2022-08-02T10:56:50;16.30;;;2.70;;
73550;SDS011;61816;53.582;10.096;2022-08-02T10:59:29;8.93;;;2.88;;
73550;SDS011;61816;53.582;10.096;2022-08-02T11:01:58;9.02;;;1.60;;
73550;SDS011;61816;53.582;10.096;2022-08-02T11:05:14;9.68;;;2.65;;
73550;SDS011;61816;53.582;10.096;2022-08-02T11:07:17;8.68;;;2.45;;
73550;SDS011;61816;53.582;10.096;2022-08-02T11:09:45;13.43;;;2.58;;
73550;SDS011;61816;53.582;10.096;2022-08-02T11:12:13;13.80;;;2.53;;
73550;SDS011;61816;53.582;10.096;2022-08-02T11:14:40;9.57;;;2.30;;
73550;SDS011;61816;53.582;10.096;2022-08-02T11:17:08;16.08;;;2.50;;
73550;SDS011;61816;53.582;10.096;2022-08-02T11:22:36;10.55;;;2.35;;
73550;SDS011;61816;53.582;10.096;2022-08-02T11:25:28;5.50;;;1.95;;
73550;SDS011;61816;53.582;10.096;2022-08-02T11:30:17;11.60;;;2.25;;
73550;SDS011;61816;53.582;10.096;2022-08-02T11:32:44;5.10;;;1.88;;
73550;SDS011;61816;53.582;10.096;2022-08-02T11:35:09;10.57;;;2.65;;
73550;SDS011;61816;53.582;10.096;2022-08-02T11:37:39;12.80;;;2.03;;
73550;SDS011;61816;53.582;10.096;2022-08-02T11:40:07;10.38;;;1.80;;
73550;SDS011;61816;53.582;10.096;2022-08-02T11:42:38;4.85;;;1.90;;
73550;SDS011;61816;53.582;10.096;2022-08-02T11:45:06;11.07;;;1.73;;
73550;SDS011;61816;53.582;10.096;2022-08-02T11:47:33;14.05;;;2.33;;
73550;SDS011;61816;53.582;10.096;2022-08-02T11:50:09;5.55;;;1.48;;
73550;SDS011;61816;53.582;10.096;2022-08-02T11:52:35;14.30;;;2.10;;
73550;SDS011;61816;53.582;10.096;2022-08-02T11:55:02;14.57;;;2.13;;
73550;SDS011;61816;53.582;10.096;2022-08-02T11:57:28;8.70;;;1.95;;
73550;SDS011;61816;53.582;10.096;2022-08-02T11:59:54;11.18;;;2.38;;
73550;SDS011;61816;53.582;10.096;2022-08-02T12:02:21;11.20;;;2.10;;
73550;SDS011;61816;53.582;10.096;2022-08-02T12:05:03;7.72;;;2.08;;
73550;SDS011;61816;53.582;10.096;2022-08-02T12:07:32;12.48;;;2.63;;
73550;SDS011;61816;53.582;10.096;2022-08-02T12:10:09;8.32;;;2.15;;
73550;SDS011;61816;53.582;10.096;2022-08-02T12:12:52;11.75;;;2.00;;
73550;SDS011;61816;53.582;10.096;2022-08-02T12:15:35;12.25;;;2.10;;
73550;SDS011;61816;53.582;10.096;2022-08-02T12:18:09;10.30;;;2.35;;
73550;SDS011;61816;53.582;10.096;2022-08-02T12:20:55;7.05;;;2.20;;
73550;SDS011;61816;53.582;10.096;2022-08-02T12:23:21;6.00;;;1.95;;
73550;SDS011;61816;53.582;10.096;2022-08-02T12:26:03;6.13;;;1.75;;
73550;SDS011;61816;53.582;10.096;2022-08-02T12:28:37;11.23;;;2.45;;
73550;SDS011;61816;53.582;10.096;2022-08-02T12:31:05;7.35;;;1.77;;
73550;SDS011;61816;53.582;10.096;2022-08-02T12:36:16;12.98;;;2.20;;
73550;SDS011;61816;53.582;10.096;2022-08-02T12:38:57;9.10;;;2.78;;
73550;SDS011;61816;53.582;10.096;2022-08-02T12:41:23;11.25;;;2.17;;
73550;SDS011;61816;53.582;10.096;2022-08-02T12:43:50;7.25;;;1.80;;
73550;SDS011;61816;53.582;10.096;2022-08-02T12:46:16;8.80;;;3.08;;
73550;SDS011;61816;53.582;10.096;2022-08-02T12:48:42;7.75;;;2.22;;
73550;SDS011;61816;53.582;10.096;2022-08-02T12:54:13;11.00;;;1.85;;
73550;SDS011;61816;53.582;10.096;2022-08-02T12:56:41;6.05;;;1.90;;
73550;SDS011;61816;53.582;10.096;2022-08-02T12:59:07;4.45;;;1.58;;
73550;SDS011;61816;53.582;10.096;2022-08-02T13:01:32;7.80;;;2.38;;
73550;SDS011;61816;53.582;10.096;2022-08-02T13:03:59;7.55;;;2.20;;
73550;SDS011;61816;53.582;10.096;2022-08-02T13:06:25;9.27;;;1.92;;
73550;SDS011;61816;53.582;10.096;2022-08-02T13:08:51;7.85;;;2.38;;
73550;SDS011;61816;53.582;10.096;2022-08-02T13:11:18;5.95;;;1.67;;
73550;SDS011;61816;53.582;10.096;2022-08-02T13:13:44;10.15;;;1.85;;
73550;SDS011;61816;53.582;10.096;2022-08-02T13:16:10;4.38;;;1.65;;
73550;SDS011;61816;53.582;10.096;2022-08-02T13:18:36;7.72;;;2.08;;
73550;SDS011;61816;53.582;10.096;2022-08-02T13:21:02;10.15;;;1.95;;
73550;SDS011;61816;53.582;10.096;2022-08-02T13:23:29;8.05;;;2.05;;
73550;SDS011;61816;53.582;10.096;2022-08-02T13:25:55;13.18;;;2.63;;
73550;SDS011;61816;53.582;10.096;2022-08-02T13:28:20;5.85;;;1.80;;
73550;SDS011;61816;53.582;10.096;2022-08-02T13:30:46;5.55;;;2.10;;
73550;SDS011;61816;53.582;10.096;2022-08-02T13:33:12;5.00;;;1.65;;
73550;SDS011;61816;53.582;10.096;2022-08-02T13:35:37;6.28;;;2.00;;
73550;SDS011;61816;53.582;10.096;2022-08-02T13:38:03;11.35;;;1.98;;
73550;SDS011;61816;53.582;10.096;2022-08-02T13:40:30;7.20;;;1.60;;
73550;SDS011;61816;53.582;10.096;2022-08-02T13:42:56;9.75;;;1.85;;
73550;SDS011;61816;53.582;10.096;2022-08-02T13:45:22;5.70;;;1.92;;
73550;SDS011;61816;53.582;10.096;2022-08-02T13:47:47;4.03;;;1.52;;
73550;SDS011;61816;53.582;10.096;2022-08-02T13:50:13;8.15;;;2.28;;
73550;SDS011;61816;53.582;10.096;2022-08-02T13:52:39;6.43;;;1.70;;
73550;SDS011;61816;53.582;10.096;2022-08-02T13:55:05;9.40;;;3.00;;
73550;SDS011;61816;53.582;10.096;2022-08-02T13:57:31;7.20;;;1.90;;
73550;SDS011;61816;53.582;10.096;2022-08-02T13:59:56;8.93;;;1.98;;
73550;SDS011;61816;53.582;10.096;2022-08-02T14:02:21;9.93;;;1.83;;
73550;SDS011;61816;53.582;10.096;2022-08-02T14:04:47;10.70;;;1.90;;
73550;SDS011;61816;53.582;10.096;2022-08-02T14:07:12;6.68;;;1.77;;
73550;SDS011;61816;53.582;10.096;2022-08-02T14:09:38;8.70;;;1.77;;
73550;SDS011;61816;53.582;10.096;2022-08-02T14:12:03;9.13;;;1.90;;
73550;SDS011;61816;53.582;10.096;2022-08-02T14:14:30;5.40;;;1.90;;
73550;SDS011;61816;53.582;10.096;2022-08-02T14:16:56;5.25;;;2.00;;
73550;SDS011;61816;53.582;10.096;2022-08-02T14:19:21;13.30;;;1.90;;
73550;SDS011;61816;53.582;10.096;2022-08-02T14:21:47;3.78;;;1.88;;
73550;SDS011;61816;53.582;10.096;2022-08-02T14:24:17;10.20;;;1.98;;
73550;SDS011;61816;53.582;10.096;2022-08-02T14:29:14;10.00;;;2.10;;
73550;SDS011;61816;53.582;10.096;2022-08-02T14:31:40;4.38;;;1.55;;
73550;SDS011;61816;53.582;10.096;2022-08-02T14:34:06;2.63;;;1.35;;
73550;SDS011;61816;53.582;10.096;2022-08-02T14:36:31;6.82;;;1.73;;
73550;SDS011;61816;53.582;10.096;2022-08-02T14:38:57;10.75;;;1.80;;
73550;SDS011;61816;53.582;10.096;2022-08-02T14:41:23;8.75;;;1.88;;
73550;SDS011;61816;53.582;10.096;2022-08-02T14:43:48;5.70;;;1.60;;
73550;SDS011;61816;53.582;10.096;2022-08-02T14:46:39;5.13;;;1.73;;
73550;SDS011;61816;53.582;10.096;2022-08-02T14:49:06;3.28;;;1.90;;
73550;SDS011;61816;53.582;10.096;2022-08-02T14:51:34;6.03;;;1.80;;
73550;SDS011;61816;53.582;10.096;2022-08-02T14:54:02;9.85;;;1.77;;
73550;SDS011;61816;53.582;10.096;2022-08-02T14:56:29;8.25;;;2.42;;
73550;SDS011;61816;53.582;10.096;2022-08-02T14:58:54;4.15;;;1.80;;
73550;SDS011;61816;53.582;10.096;2022-08-02T15:01:20;9.15;;;1.85;;
73550;SDS011;61816;53.582;10.096;2022-08-02T15:03:45;8.02;;;1.90;;
73550;SDS011;61816;53.582;10.096;2022-08-02T15:06:11;5.47;;;1.95;;
73550;SDS011;61816;53.582;10.096;2022-08-02T15:08:36;5.82;;;1.65;;
73550;SDS011;61816;53.582;10.096;2022-08-02T15:11:02;5.13;;;2.05;;
73550;SDS011;61816;53.582;10.096;2022-08-02T15:13:27;6.50;;;1.92;;
73550;SDS011;61816;53.582;10.096;2022-08-02T15:15:53;4.50;;;1.83;;
73550;SDS011;61816;53.582;10.096;2022-08-02T15:18:18;7.38;;;1.98;;